Time;durP1;ratioP1;P1;durP2;ratioP2;P2;SDS_P1;SDS_P2;PMS_P1;PMS_P2;Temp;Humidity;BMP_temperature;BMP_pressure;BME280_temperature;BME280_humidity;BME280_pressure;Samples;Min_cycle;Max_cycle;Signal;HPM_P1;HPM_P2
2023/07/12 00:00:28;;;;;;;11.38;6.15;;;;;;;-146.25;100.00;51928.22;2087615;28;36016;-73
2023/07/12 00:01:30;;;;;;;28.75;6.85;;;;;;;-146.25;100.00;51942.44;2079762;28;20950;-73
2023/07/12 00:02:32;;;;;;;26.67;6.75;;;;;;;-146.25;100.00;51968.78;2080792;28;33532;-74
2023/07/12 00:03:34;;;;;;;24.15;8.65;;;;;;;-146.25;100.00;51978.91;2087024;28;36242;-73
2023/07/12 00:04:36;;;;;;;18.80;7.15;;;;;;;-146.25;100.00;51962.69;2088535;28;30960;-73
2023/07/12 00:05:41;;;;;;;19.55;6.97;;;;;;;-146.25;100.00;51942.44;2087640;28;35977;-72
2023/07/12 00:06:43;;;;;;;16.30;6.88;;;;;;;-146.25;100.00;51956.63;2088759;28;23099;-72
2023/07/12 00:07:45;;;;;;;55.03;8.32;;;;;;;-146.25;100.00;51970.81;2087825;28;37496;-72
2023/07/12 00:08:47;;;;;;;20.52;8.20;;;;;;;-146.25;100.00;51948.50;2087128;28;37358;-73
2023/07/12 00:09:49;;;;;;;20.95;8.48;;;;;;;-146.25;100.00;51934.31;2088006;28;32131;-73
2023/07/12 00:10:57;;;;;;;13.02;7.47;;;;;;;-146.25;100.00;51946.47;2087873;28;20041;-73
2023/07/12 00:11:58;;;;;;;21.92;8.13;;;;;;;-146.25;100.00;51966.75;2087579;28;32275;-72
2023/07/12 00:13:02;;;;;;;14.43;7.53;;;;;;;-146.25;100.00;51985.00;2095779;28;33556;-73
2023/07/12 00:14:03;;;;;;;49.88;8.73;;;;;;;-146.25;100.00;51962.69;2087041;28;38468;-72
2023/07/12 00:15:06;;;;;;;23.60;9.05;;;;;;;-146.25;100.00;51958.66;2079237;28;33885;-72
2023/07/12 00:16:49;;;;;;;16.73;8.52;;;;;;;-146.25;100.00;51964.72;2087626;28;20034;-73
2023/07/12 00:17:53;;;;;;;18.77;8.90;;;;;;;-146.25;100.00;51938.38;2083931;28;34656;-73
2023/07/12 00:18:56;;;;;;;19.83;8.52;;;;;;;-146.25;100.00;51978.91;2091794;28;38105;-73
2023/07/12 00:20:00;;;;;;;20.20;8.80;;;;;;;-146.25;100.00;51968.78;2087610;28;37717;-72
2023/07/12 00:21:02;;;;;;;13.23;7.63;;;;;;;-146.25;100.00;51942.44;2088067;28;24651;-72
2023/07/12 00:22:04;;;;;;;13.27;7.50;;;;;;;-146.25;100.00;51940.41;2087607;28;36195;-72
2023/07/12 00:23:09;;;;;;;18.63;8.35;;;;;;;-146.25;100.00;51966.75;2087800;28;20097;-72
2023/07/12 00:24:11;;;;;;;25.42;10.32;;;;;;;-146.25;100.00;51970.81;2087351;28;36646;-73
2023/07/12 00:25:15;;;;;;;23.92;10.30;;;;;;;-146.25;100.00;51948.50;2087404;28;36883;-73
2023/07/12 00:26:33;;;;;;;22.35;9.63;;;;;;;-146.25;100.00;51960.66;2087172;28;31525;-71
2023/07/12 00:27:35;;;;;;;25.05;9.57;;;;;;;-146.25;100.00;51954.59;2082410;28;29329;-74
2023/07/12 00:28:36;;;;;;;29.02;10.18;;;;;;;-146.25;100.00;51958.66;2087276;28;35554;-73
2023/07/12 00:29:38;;;;;;;24.27;10.10;;;;;;;-146.25;100.00;51924.19;2088079;28;29301;-73
2023/07/12 00:30:40;;;;;;;20.25;9.38;;;;;;;-146.25;100.00;51942.44;2088072;28;35991;-73
2023/07/12 00:31:43;;;;;;;22.15;10.40;;;;;;;-146.25;100.00;51978.91;2088548;28;20135;-73
2023/07/12 00:32:51;;;;;;;18.40;9.40;;;;;;;-146.25;100.00;51960.66;2087797;28;20961;-72
2023/07/12 00:33:53;;;;;;;20.50;9.43;;;;;;;-146.25;100.00;51978.91;2088407;28;20954;-72
2023/07/12 00:34:55;;;;;;;16.73;8.30;;;;;;;-146.25;100.00;51948.50;2088266;28;29760;-73
2023/07/12 00:35:56;;;;;;;19.48;8.80;;;;;;;-146.25;100.00;51964.72;2088490;28;23715;-75
2023/07/12 00:36:58;;;;;;;21.95;9.77;;;;;;;-146.25;100.00;51934.31;2087292;28;29025;-75
2023/07/12 00:38:01;;;;;;;19.05;9.13;;;;;;;-146.25;100.00;51985.00;2087879;28;25345;-76
2023/07/12 00:39:05;;;;;;;16.70;8.98;;;;;;;-146.25;100.00;51993.09;2087458;28;20041;-74
2023/07/12 00:40:41;;;;;;;15.57;8.25;;;;;;;-146.25;100.00;51964.72;2087571;28;31180;-74
2023/07/12 00:42:15;;;;;;;19.20;8.68;;;;;;;-146.25;100.00;51920.13;2086742;28;38587;-73
2023/07/12 00:43:40;;;;;;;21.65;8.35;;;;;;;-146.25;100.00;51976.88;2088020;28;20903;-73
2023/07/12 00:44:50;;;;;;;13.05;7.13;;;;;;;-146.25;100.00;51964.72;2087821;28;29606;-74
2023/07/12 00:45:56;;;;;;;17.13;8.10;;;;;;;-146.25;100.00;51972.84;2091835;28;20049;-74
2023/07/12 00:46:58;;;;;;;16.13;8.20;;;;;;;-146.25;100.00;51962.69;2094426;28;34051;-74
2023/07/12 00:48:00;;;;;;;17.95;7.97;;;;;;;-146.25;100.00;52011.34;2087770;28;35613;-74
2023/07/12 00:49:04;;;;;;;16.30;7.63;;;;;;;-146.25;100.00;51976.88;2087751;28;20826;-73
2023/07/12 00:50:19;;;;;;;15.48;7.88;;;;;;;-146.25;100.00;51970.81;2088336;28;20072;-73
2023/07/12 00:51:27;;;;;;;15.68;8.35;;;;;;;-146.25;100.00;51982.97;2087712;28;20045;-73
2023/07/12 00:52:30;;;;;;;14.90;7.88;;;;;;;-146.25;100.00;51987.03;2088116;28;20916;-73
2023/07/12 00:53:33;;;;;;;15.02;7.80;;;;;;;-146.25;100.00;51940.41;2087185;28;31025;-73
2023/07/12 00:54:59;;;;;;;15.82;7.25;;;;;;;-146.25;100.00;51966.75;2088060;28;32794;-73
2023/07/12 00:56:07;;;;;;;14.38;7.95;;;;;;;-146.25;100.00;52003.25;2092883;28;20172;-73
2023/07/12 00:57:08;;;;;;;18.73;7.68;;;;;;;-146.25;100.00;51950.53;2087419;28;28453;-73
2023/07/12 00:58:11;;;;;;;13.65;7.47;;;;;;;-146.25;100.00;52029.59;2087855;28;20034;-73
2023/07/12 00:59:29;;;;;;;15.48;7.90;;;;;;;-146.25;100.00;51964.72;2087277;28;34800;-73
2023/07/12 01:00:31;;;;;;;14.95;7.78;;;;;;;-146.25;100.00;51942.44;2087829;28;21445;-73
2023/07/12 01:01:37;;;;;;;15.65;8.07;;;;;;;-146.25;100.00;51966.75;2087467;28;20171;-73
2023/07/12 01:02:45;;;;;;;18.73;8.00;;;;;;;-146.25;100.00;52005.28;2079776;28;20266;-74
2023/07/12 01:03:49;;;;;;;14.40;7.93;;;;;;;-146.25;100.00;51958.66;2080913;28;20837;-72
2023/07/12 01:04:57;;;;;;;12.35;7.35;;;;;;;-146.25;100.00;51976.88;2079717;28;20081;-73
2023/07/12 01:06:01;;;;;;;14.05;7.47;;;;;;;-146.25;100.00;51995.13;2080815;28;29739;-74
2023/07/12 01:07:04;;;;;;;17.25;7.90;;;;;;;-146.25;100.00;51956.63;2080273;28;24118;-73
2023/07/12 01:08:06;;;;;;;13.32;7.43;;;;;;;-146.25;100.00;51960.66;2087922;28;20038;-74
2023/07/12 01:09:14;;;;;;;15.85;7.68;;;;;;;-146.25;100.00;51993.09;2087164;28;31741;-74
2023/07/12 01:10:19;;;;;;;14.20;7.22;;;;;;;-146.25;100.00;51974.88;2087751;28;24445;-73
2023/07/12 01:11:21;;;;;;;15.02;7.55;;;;;;;-146.25;100.00;51978.91;2087717;28;20151;-74
2023/07/12 01:12:25;;;;;;;16.95;8.00;;;;;;;-146.25;100.00;51987.03;2087535;28;20038;-72
2023/07/12 01:13:31;;;;;;;17.00;7.90;;;;;;;-146.25;100.00;51958.66;2095151;28;34214;-73
2023/07/12 01:14:39;;;;;;;16.73;6.93;;;;;;;-146.25;100.00;51940.41;2087472;28;20245;-73
2023/07/12 01:15:41;;;;;;;11.23;6.65;;;;;;;-146.25;100.00;51978.91;2087531;28;36940;-73
2023/07/12 01:16:49;;;;;;;14.68;7.72;;;;;;;-146.25;100.00;52011.34;2070892;28;28173;-72
2023/07/12 01:17:51;;;;;;;12.13;7.03;;;;;;;-146.25;100.00;51999.19;2073354;28;22541;-74
2023/07/12 01:18:53;;;;;;;15.05;7.60;;;;;;;-146.25;100.00;52007.31;2088024;28;28944;-72
2023/07/12 01:19:55;;;;;;;15.50;7.70;;;;;;;-146.25;100.00;51946.47;2096559;28;30670;-72
2023/07/12 01:21:24;;;;;;;16.95;8.38;;;;;;;-146.25;100.00;51966.75;2080551;28;20038;-72
2023/07/12 01:22:26;;;;;;;17.38;7.50;;;;;;;-146.25;100.00;52009.31;2082177;28;28890;-72
2023/07/12 01:23:29;;;;;;;18.75;8.77;;;;;;;-146.25;100.00;51966.75;2088994;28;20038;-72
2023/07/12 01:24:32;;;;;;;21.05;9.13;;;;;;;-146.25;100.00;51991.09;2088785;28;30926;-72
2023/07/12 01:25:45;;;;;;;16.70;9.40;;;;;;;-146.25;100.00;52003.25;2080555;28;20049;-73
2023/07/12 01:26:51;;;;;;;18.75;9.35;;;;;;;-146.25;100.00;51985.00;2082084;28;27092;-72
2023/07/12 01:27:53;;;;;;;16.95;9.75;;;;;;;-146.25;100.00;51997.16;2081251;28;30201;-73
2023/07/12 01:28:58;;;;;;;18.50;8.95;;;;;;;-146.25;100.00;51940.41;2081017;28;28656;-73
2023/07/12 01:30:00;;;;;;;16.95;9.38;;;;;;;-146.25;100.00;51995.13;2081899;28;20031;-73
2023/07/12 01:31:05;;;;;;;18.58;9.52;;;;;;;-146.25;100.00;51991.09;2081810;28;20108;-72
2023/07/12 01:32:08;;;;;;;18.02;9.55;;;;;;;-146.25;100.00;51997.16;2088719;28;30788;-73
2023/07/12 01:33:10;;;;;;;19.55;9.35;;;;;;;-146.25;100.00;51970.81;2088374;28;27032;-72
2023/07/12 01:34:13;;;;;;;17.10;9.68;;;;;;;-146.25;100.00;51976.88;2088900;28;31552;-72
2023/07/12 01:35:15;;;;;;;20.13;9.63;;;;;;;-146.25;100.00;51982.97;2089755;28;20786;-74
2023/07/12 01:36:18;;;;;;;19.63;9.70;;;;;;;-146.25;100.00;51974.88;2096690;28;40057;-72
2023/07/12 01:37:22;;;;;;;15.98;9.27;;;;;;;-146.25;100.00;51954.59;2089002;28;20107;-73
2023/07/12 01:38:26;;;;;;;15.88;8.88;;;;;;;-146.25;100.00;51964.72;2082329;28;20109;-73
2023/07/12 01:39:28;;;;;;;18.80;10.25;;;;;;;-146.25;100.00;51962.69;2080868;28;27260;-74
2023/07/12 01:40:30;;;;;;;18.38;10.38;;;;;;;-146.25;100.00;51950.53;2088593;28;32867;-71
2023/07/12 01:41:32;;;;;;;20.52;10.35;;;;;;;-146.25;100.00;52017.44;2088464;28;21359;-71
2023/07/12 01:42:34;;;;;;;22.90;10.27;;;;;;;-146.25;100.00;51989.06;2088660;28;37083;-73
2023/07/12 01:43:37;;;;;;;16.70;9.27;;;;;;;-146.25;100.00;51989.06;2080776;28;21046;-72
2023/07/12 01:44:38;;;;;;;21.77;10.15;;;;;;;-146.25;100.00;51978.91;2080615;28;31684;-73
2023/07/12 01:45:40;;;;;;;18.58;10.45;;;;;;;-146.25;100.00;52029.59;2089348;28;28231;-73
2023/07/12 01:46:44;;;;;;;19.05;11.10;;;;;;;-146.25;100.00;51999.19;2088877;28;20042;-73
2023/07/12 01:47:46;;;;;;;22.40;11.75;;;;;;;-146.25;100.00;51966.75;2088680;28;27270;-73
2023/07/12 01:48:48;;;;;;;20.35;11.57;;;;;;;-146.25;100.00;51980.94;2089682;28;20789;-73
2023/07/12 01:49:50;;;;;;;22.05;12.10;;;;;;;-146.25;100.00;51982.97;2089721;28;20040;-73
2023/07/12 01:50:52;;;;;;;23.60;12.40;;;;;;;-146.25;100.00;52009.31;2088425;28;28072;-72
2023/07/12 01:51:56;;;;;;;19.55;11.18;;;;;;;-146.25;100.00;51982.97;2081032;28;20938;-73
2023/07/12 01:52:58;;;;;;;24.50;12.13;;;;;;;-146.25;100.00;52021.50;2088310;28;30581;-73
2023/07/12 01:54:00;;;;;;;20.17;11.48;;;;;;;-146.25;100.00;52005.28;2088896;28;28190;-72
2023/07/12 01:55:02;;;;;;;21.58;12.02;;;;;;;-146.25;100.00;51962.69;2088757;28;20053;-73
2023/07/12 01:56:05;;;;;;;20.17;11.90;;;;;;;-146.25;100.00;51978.91;2088206;28;31440;-73
2023/07/12 01:57:07;;;;;;;25.38;11.95;;;;;;;-146.25;100.00;51989.06;2088436;28;20088;-72
2023/07/12 01:58:10;;;;;;;22.67;12.02;;;;;;;-146.25;100.00;52001.22;2080511;28;20181;-73
2023/07/12 01:59:11;;;;;;;21.77;11.23;;;;;;;-146.25;100.00;51952.56;2072594;28;20051;-72
2023/07/12 02:00:15;;;;;;;24.17;12.15;;;;;;;-146.25;100.00;52009.31;2071871;28;20038;-72
2023/07/12 02:01:22;;;;;;;21.70;11.38;;;;;;;-146.25;100.00;51995.13;2081319;28;20050;-73
2023/07/12 02:02:23;;;;;;;21.85;11.90;;;;;;;-146.25;100.00;52003.25;2080147;28;34367;-71
2023/07/12 02:03:26;;;;;;;24.05;12.40;;;;;;;-146.25;100.00;52007.31;2088777;28;28439;-72
2023/07/12 02:04:28;;;;;;;19.40;11.10;;;;;;;-146.25;100.00;51976.88;2089334;28;22219;-72
2023/07/12 02:05:30;;;;;;;25.75;11.93;;;;;;;-146.25;100.00;52013.38;2089005;28;30419;-72
2023/07/12 02:06:32;;;;;;;20.67;11.55;;;;;;;-146.25;100.00;51997.16;2096285;28;25444;-72
2023/07/12 02:07:34;;;;;;;19.48;10.57;;;;;;;-146.25;100.00;52021.50;2097047;28;24376;-72
2023/07/12 02:08:36;;;;;;;20.38;10.68;;;;;;;-146.25;100.00;52029.59;2096508;28;25730;-72
2023/07/12 02:10:01;;;;;;;18.85;11.30;;;;;;;-146.25;100.00;51978.91;2089386;28;20046;-76
2023/07/12 02:11:02;;;;;;;22.35;10.82;;;;;;;-146.25;100.00;51970.81;2096813;28;20084;-74
2023/07/12 02:12:05;;;;;;;16.15;10.80;;;;;;;-146.25;100.00;51956.63;2088234;28;20080;-75
2023/07/12 02:13:11;;;;;;;20.90;10.35;;;;;;;-146.25;100.00;52001.22;2088485;28;20038;-76
2023/07/12 02:14:13;;;;;;;21.25;10.13;;;;;;;-146.25;100.00;52035.69;2080151;28;20347;-76
2023/07/12 02:15:17;;;;;;;19.00;10.70;;;;;;;-146.25;100.00;51989.06;2072602;28;20054;-73
2023/07/12 02:16:21;;;;;;;21.25;11.38;;;;;;;-146.25;100.00;51978.91;2080014;28;25326;-76
2023/07/12 02:17:23;;;;;;;20.98;10.90;;;;;;;-146.25;100.00;52011.34;2088790;28;20096;-75
2023/07/12 02:18:25;;;;;;;19.48;10.68;;;;;;;-146.25;100.00;51999.19;2096723;28;31984;-76
2023/07/12 02:19:27;;;;;;;14.98;10.50;;;;;;;-146.25;100.00;51964.72;2088734;28;33180;-76
2023/07/12 02:20:28;;;;;;;15.57;10.05;;;;;;;-146.25;100.00;51985.00;2089445;28;23310;-76
2023/07/12 02:21:30;;;;;;;16.98;10.63;;;;;;;-146.25;100.00;51991.09;2088660;28;30132;-75
2023/07/12 02:22:35;;;;;;;14.85;10.45;;;;;;;-146.25;100.00;52027.56;2088856;28;29733;-75
2023/07/12 02:23:37;;;;;;;14.45;9.27;;;;;;;-146.25;100.00;51991.09;2089993;28;20046;-75
2023/07/12 02:24:39;;;;;;;16.15;9.30;;;;;;;-146.25;100.00;51993.09;2096483;28;33707;-75
2023/07/12 02:25:41;;;;;;;19.35;9.10;;;;;;;-146.25;100.00;51995.13;2096851;28;20093;-75
2023/07/12 02:26:43;;;;;;;15.80;9.23;;;;;;;-146.25;100.00;51985.00;2088809;28;22326;-74
2023/07/12 02:27:47;;;;;;;13.85;9.05;;;;;;;-146.25;100.00;52039.75;2096672;28;20077;-74
2023/07/12 02:28:49;;;;;;;11.57;7.97;;;;;;;-146.25;100.00;52011.34;2097084;28;20041;-74
2023/07/12 02:29:51;;;;;;;14.27;7.43;;;;;;;-146.25;100.00;51995.13;2089000;28;25081;-74
2023/07/12 02:30:53;;;;;;;14.65;8.68;;;;;;;-146.25;100.00;51995.13;2096800;28;20119;-74
2023/07/12 02:31:55;;;;;;;13.18;9.25;;;;;;;-146.25;100.00;52001.22;2095464;28;20099;-74
2023/07/12 02:33:00;;;;;;;16.30;9.00;;;;;;;-146.25;100.00;52029.59;2096484;28;21273;-74
2023/07/12 02:34:02;;;;;;;14.43;7.78;;;;;;;-146.25;100.00;51978.91;2095435;28;35484;-74
2023/07/12 02:35:04;;;;;;;10.93;7.15;;;;;;;-146.25;100.00;51995.13;2088044;28;27116;-74
2023/07/12 02:36:06;;;;;;;14.30;7.50;;;;;;;-146.25;100.00;52013.38;2087890;28;37505;-74
2023/07/12 02:37:10;;;;;;;14.00;8.55;;;;;;;-146.25;100.00;51958.66;2088929;28;35276;-73
2023/07/12 02:38:12;;;;;;;15.38;7.63;;;;;;;-146.25;100.00;52039.75;2095863;28;40669;-73
2023/07/12 02:39:13;;;;;;;11.70;7.25;;;;;;;-146.25;100.00;52013.38;2096275;28;35795;-74
2023/07/12 02:40:15;;;;;;;12.65;8.07;;;;;;;-146.25;100.00;52033.66;2096369;28;34475;-73
2023/07/12 02:41:18;;;;;;;15.68;8.73;;;;;;;-146.25;100.00;51987.03;2087794;28;38968;-73
2023/07/12 02:42:20;;;;;;;11.63;7.93;;;;;;;-146.25;100.00;51958.66;2080174;28;20038;-74
2023/07/12 02:43:24;;;;;;;14.95;8.32;;;;;;;-146.25;100.00;51991.09;2080091;28;38558;-74
2023/07/12 02:44:26;;;;;;;15.18;7.43;;;;;;;-146.25;100.00;51978.91;2088329;28;33216;-73
2023/07/12 02:45:28;;;;;;;12.65;8.15;;;;;;;-146.25;100.00;52041.75;2096403;28;33691;-73
2023/07/12 02:46:29;;;;;;;15.38;8.55;;;;;;;-146.25;100.00;51987.03;2095410;28;37337;-73
2023/07/12 02:47:31;;;;;;;13.25;8.98;;;;;;;-146.25;100.00;51982.97;2096601;28;33473;-73
2023/07/12 02:48:35;;;;;;;16.10;9.15;;;;;;;-146.25;100.00;52029.59;2088456;28;33913;-73
2023/07/12 02:49:39;;;;;;;16.92;9.52;;;;;;;-146.25;100.00;52023.53;2088687;28;37370;-73
2023/07/12 02:50:41;;;;;;;16.42;9.43;;;;;;;-146.25;100.00;52017.44;2088242;28;34525;-73
2023/07/12 02:51:43;;;;;;;14.23;9.35;;;;;;;-146.25;100.00;52007.31;2096112;28;37407;-73
2023/07/12 02:52:45;;;;;;;16.38;10.27;;;;;;;-146.25;100.00;51987.03;2095796;28;34579;-73
2023/07/12 02:53:46;;;;;;;12.70;9.20;;;;;;;-146.25;100.00;51991.09;2088138;28;35074;-73
2023/07/12 02:54:48;;;;;;;17.95;9.88;;;;;;;-146.25;100.00;52007.31;2087711;28;36947;-73
2023/07/12 02:55:51;;;;;;;13.02;9.02;;;;;;;-146.25;100.00;52015.41;2088495;28;20084;-73
2023/07/12 02:56:52;;;;;;;14.07;9.77;;;;;;;-146.25;100.00;51999.19;2087518;28;33565;-73
2023/07/12 02:57:54;;;;;;;17.00;10.52;;;;;;;-146.25;100.00;52017.44;2089246;28;20908;-73
2023/07/12 02:58:56;;;;;;;13.95;9.68;;;;;;;-146.25;100.00;52045.81;2088483;28;33265;-73
2023/07/12 02:59:58;;;;;;;16.17;9.52;;;;;;;-146.25;100.00;52029.59;2088723;28;38884;-73
2023/07/12 03:01:02;;;;;;;13.75;9.27;;;;;;;-146.25;100.00;52023.53;2088310;28;31182;-73
2023/07/12 03:02:07;;;;;;;20.10;10.40;;;;;;;-146.25;100.00;52007.31;2088340;28;36034;-73
2023/07/12 03:03:09;;;;;;;17.60;10.82;;;;;;;-146.25;100.00;51999.19;2087364;28;34605;-73
2023/07/12 03:04:11;;;;;;;17.48;11.25;;;;;;;-146.25;100.00;51995.13;2088252;28;35143;-73
2023/07/12 03:05:13;;;;;;;17.45;13.02;;;;;;;-146.25;100.00;51987.03;2088183;28;30513;-73
2023/07/12 03:06:15;;;;;;;20.35;12.55;;;;;;;-146.25;100.00;52029.59;2088520;28;36252;-73
2023/07/12 03:07:17;;;;;;;19.10;13.25;;;;;;;-146.25;100.00;51978.91;2088367;28;29844;-73
2023/07/12 03:08:19;;;;;;;21.48;14.00;;;;;;;-146.25;100.00;52029.59;2088753;28;38177;-73
2023/07/12 03:09:21;;;;;;;21.20;13.27;;;;;;;-146.25;100.00;52023.53;2088484;28;36713;-73
2023/07/12 03:10:22;;;;;;;22.10;14.95;;;;;;;-146.25;100.00;52015.41;2096193;28;35082;-73
2023/07/12 03:11:24;;;;;;;26.45;16.63;;;;;;;-146.25;100.00;52011.34;2095279;28;37362;-72
2023/07/12 03:12:27;;;;;;;25.80;16.23;;;;;;;-146.25;100.00;51999.19;2088361;28;20052;-72
2023/07/12 03:13:30;;;;;;;23.65;16.45;;;;;;;-146.25;100.00;51997.16;2087983;28;20902;-73
2023/07/12 03:14:32;;;;;;;25.40;16.58;;;;;;;-146.25;100.00;52011.34;2088798;28;32972;-73
2023/07/12 03:15:37;;;;;;;22.58;16.77;;;;;;;-146.25;100.00;52039.75;2087876;28;35777;-73
2023/07/12 03:16:39;;;;;;;29.90;17.55;;;;;;;-146.25;100.00;52003.25;2088366;28;33390;-73
2023/07/12 03:17:41;;;;;;;23.55;15.73;;;;;;;-146.25;100.00;52013.38;2088112;28;35241;-73
2023/07/12 03:18:43;;;;;;;25.98;16.98;;;;;;;-146.25;100.00;52047.84;2088670;28;31870;-73
2023/07/12 03:19:45;;;;;;;24.73;16.40;;;;;;;-146.25;100.00;52001.22;2087358;28;33940;-73
2023/07/12 03:20:47;;;;;;;22.88;16.08;;;;;;;-146.25;100.00;52015.41;2088174;28;32270;-73
2023/07/12 03:21:50;;;;;;;24.30;16.40;;;;;;;-146.25;100.00;52015.41;2088815;28;20037;-73
2023/07/12 03:22:55;;;;;;;22.58;15.65;;;;;;;-146.25;100.00;52039.75;2088484;28;20033;-73
2023/07/12 03:23:57;;;;;;;21.73;14.10;;;;;;;-146.25;100.00;52037.72;2080010;28;34086;-73
2023/07/12 03:24:58;;;;;;;21.23;13.95;;;;;;;-146.25;100.00;52005.28;2087820;28;33943;-73
2023/07/12 03:26:03;;;;;;;15.32;12.32;;;;;;;-146.25;100.00;52029.59;2087829;28;35163;-73
2023/07/12 03:27:05;;;;;;;14.82;11.75;;;;;;;-146.25;100.00;52027.56;2087771;28;32050;-73
2023/07/12 03:28:07;;;;;;;18.98;12.27;;;;;;;-146.25;100.00;52007.31;2087303;28;37216;-73
2023/07/12 03:29:08;;;;;;;16.92;12.38;;;;;;;-146.25;100.00;52053.94;2088133;28;30300;-73
2023/07/12 03:30:10;;;;;;;18.33;12.05;;;;;;;-146.25;100.00;52076.22;2088199;28;38406;-73
2023/07/12 03:31:15;;;;;;;16.70;11.70;;;;;;;-146.25;100.00;52011.34;2095879;28;36826;-72
2023/07/12 03:32:17;;;;;;;15.40;10.65;;;;;;;-146.25;100.00;51999.19;2095278;28;32895;-73
2023/07/12 03:33:19;;;;;;;13.95;9.93;;;;;;;-146.25;100.00;52003.25;2087299;28;42760;-73
2023/07/12 03:34:21;;;;;;;12.98;10.18;;;;;;;-146.25;100.00;52035.69;2079346;28;34927;-73
2023/07/12 03:35:23;;;;;;;17.45;11.15;;;;;;;-146.25;100.00;52041.75;2088001;28;36221;-73
2023/07/12 03:36:31;;;;;;;15.40;10.48;;;;;;;-146.25;100.00;52025.53;2088069;28;37428;-73
2023/07/12 03:37:32;;;;;;;13.45;9.98;;;;;;;-146.25;100.00;52009.31;2088871;28;27619;-72
2023/07/12 03:38:35;;;;;;;13.85;9.40;;;;;;;-146.25;100.00;52049.88;2087294;28;36754;-73
2023/07/12 03:39:37;;;;;;;10.98;8.40;;;;;;;-146.25;100.00;52015.41;2087843;28;38078;-73
2023/07/12 03:40:39;;;;;;;13.50;8.60;;;;;;;-146.25;100.00;52013.38;2087618;28;32585;-73
2023/07/12 03:41:40;;;;;;;12.32;7.68;;;;;;;-146.25;100.00;52053.94;2088400;28;35970;-73
2023/07/12 03:42:45;;;;;;;10.13;6.90;;;;;;;-146.25;100.00;51999.19;2088252;28;20468;-72
2023/07/12 03:43:47;;;;;;;9.00;7.30;;;;;;;-146.25;100.00;52015.41;2089071;28;33235;-73
2023/07/12 03:44:49;;;;;;;10.75;7.15;;;;;;;-146.25;100.00;52019.47;2087212;28;39454;-72
2023/07/12 03:45:52;;;;;;;9.48;6.40;;;;;;;-146.25;100.00;52029.59;2087878;28;32455;-72
2023/07/12 03:46:54;;;;;;;7.97;5.70;;;;;;;-146.25;100.00;52045.81;2087192;28;38840;-72
2023/07/12 03:47:57;;;;;;;9.82;5.85;;;;;;;-146.25;100.00;52047.84;2079789;28;34930;-73
2023/07/12 03:48:59;;;;;;;8.15;6.00;;;;;;;-146.25;100.00;52029.59;2087140;28;30637;-73
2023/07/12 03:50:01;;;;;;;8.75;6.22;;;;;;;-146.25;100.00;52039.75;2089130;28;20049;-73
2023/07/12 03:51:06;;;;;;;10.63;6.53;;;;;;;-146.25;100.00;52043.78;2079156;28;20038;-73
2023/07/12 03:52:08;;;;;;;9.57;6.18;;;;;;;-146.25;100.00;52043.78;2080435;28;32941;-73
2023/07/12 03:53:09;;;;;;;9.77;6.15;;;;;;;-146.25;100.00;52045.81;2087232;28;34838;-72
2023/07/12 03:54:13;;;;;;;10.32;6.78;;;;;;;-146.25;100.00;52039.75;2087759;28;33216;-73
2023/07/12 03:55:15;;;;;;;10.27;7.00;;;;;;;-146.25;100.00;52009.31;2087467;28;37638;-73
2023/07/12 03:56:18;;;;;;;10.48;6.88;;;;;;;-146.25;100.00;52053.94;2088274;28;36864;-73
2023/07/12 03:57:20;;;;;;;10.40;6.53;;;;;;;-146.25;100.00;52045.81;2087108;28;39109;-72
2023/07/12 03:58:27;;;;;;;9.80;5.88;;;;;;;-146.25;100.00;52023.53;2088296;28;35850;-72
2023/07/12 03:59:29;;;;;;;9.45;5.93;;;;;;;-146.25;100.00;52029.59;2087383;28;30170;-73
2023/07/12 04:00:31;;;;;;;8.85;6.03;;;;;;;-146.25;100.00;51995.13;2088520;28;35436;-73
2023/07/12 04:01:36;;;;;;;8.60;5.93;;;;;;;-146.25;100.00;52005.28;2095351;28;36981;-73
2023/07/12 04:02:38;;;;;;;11.90;6.10;;;;;;;-146.25;100.00;52047.84;2079364;28;35852;-73
2023/07/12 04:03:39;;;;;;;10.07;6.53;;;;;;;-146.25;100.00;52007.31;2079742;28;32606;-73
2023/07/12 04:04:41;;;;;;;8.30;6.20;;;;;;;-146.25;100.00;52013.38;2088587;28;20172;-73
2023/07/12 04:05:48;;;;;;;10.52;6.20;;;;;;;-146.25;100.00;52058.00;2087713;28;36247;-73
2023/07/12 04:06:50;;;;;;;7.88;5.97;;;;;;;-146.25;100.00;52035.69;2088396;28;35557;-73
2023/07/12 04:07:56;;;;;;;9.27;5.95;;;;;;;-146.25;100.00;52049.88;2088297;28;20038;-73
2023/07/12 04:08:58;;;;;;;9.32;5.57;;;;;;;-146.25;100.00;51999.19;2088018;28;38402;-73
2023/07/12 04:10:00;;;;;;;10.70;5.47;;;;;;;-146.25;100.00;52035.69;2078790;28;36711;-72
2023/07/12 04:11:04;;;;;;;8.45;5.45;;;;;;;-146.25;100.00;52047.84;2079604;28;33453;-73
2023/07/12 04:12:06;;;;;;;9.15;5.90;;;;;;;-146.25;100.00;52027.56;2086865;28;38281;-73
2023/07/12 04:13:08;;;;;;;9.25;5.60;;;;;;;-146.25;100.00;52039.75;2088618;28;20044;-73
2023/07/12 04:14:10;;;;;;;7.63;5.60;;;;;;;-146.25;100.00;52060.00;2087439;28;34014;-73
2023/07/12 04:15:12;;;;;;;8.05;5.13;;;;;;;-146.25;100.00;52015.41;2088740;28;33174;-73
2023/07/12 04:16:15;;;;;;;8.57;5.93;;;;;;;-146.25;100.00;52041.75;2088228;28;21906;-73
2023/07/12 04:17:19;;;;;;;7.72;6.13;;;;;;;-146.25;100.00;52053.94;2088107;28;33041;-73
2023/07/12 04:18:24;;;;;;;10.32;5.53;;;;;;;-146.25;100.00;52027.56;2078971;28;34927;-73
2023/07/12 04:19:25;;;;;;;11.68;5.93;;;;;;;-146.25;100.00;52019.47;2079551;28;26472;-73
2023/07/12 04:20:30;;;;;;;10.00;6.18;;;;;;;-146.25;100.00;52078.25;2088047;28;34484;-73
2023/07/12 04:21:34;;;;;;;10.55;6.13;;;;;;;-146.25;100.00;52013.38;2088590;28;20952;-72
2023/07/12 04:22:36;;;;;;;10.60;6.32;;;;;;;-146.25;100.00;52035.69;2087086;28;36282;-72
2023/07/12 04:23:38;;;;;;;10.85;5.90;;;;;;;-146.25;100.00;52045.81;2087603;28;32616;-73
2023/07/12 04:24:39;;;;;;;8.77;6.25;;;;;;;-146.25;100.00;52039.75;2088477;28;20053;-73
2023/07/12 04:25:42;;;;;;;10.77;6.03;;;;;;;-146.25;100.00;52045.81;2088379;28;33457;-73
2023/07/12 04:26:48;;;;;;;11.10;6.10;;;;;;;-146.25;100.00;52031.63;2087176;28;33501;-72
2023/07/12 04:27:50;;;;;;;11.25;6.00;;;;;;;-146.25;100.00;52076.22;2088068;28;30794;-72
2023/07/12 04:28:52;;;;;;;10.27;6.60;;;;;;;-146.25;100.00;52027.56;2095106;28;36105;-73
2023/07/12 04:29:54;;;;;;;8.77;5.68;;;;;;;-146.25;100.00;52051.91;2088012;28;34096;-72
2023/07/12 04:30:55;;;;;;;10.73;6.50;;;;;;;-146.25;100.00;52041.75;2087531;28;37882;-72
2023/07/12 04:31:57;;;;;;;12.30;6.57;;;;;;;-146.25;100.00;52007.31;2088125;28;35621;-72
2023/07/12 04:33:03;;;;;;;8.63;5.80;;;;;;;-146.25;100.00;52019.47;2087046;28;34274;-72
2023/07/12 04:34:06;;;;;;;10.38;6.78;;;;;;;-146.25;100.00;52019.47;2087454;28;34282;-73
2023/07/12 04:35:10;;;;;;;9.85;6.90;;;;;;;-146.25;100.00;52051.91;2088720;28;20107;-74
2023/07/12 04:36:16;;;;;;;10.38;7.20;;;;;;;-146.25;100.00;52060.00;2079611;28;20115;-73
2023/07/12 04:37:17;;;;;;;10.65;7.43;;;;;;;-146.25;100.00;52047.84;2080749;28;34553;-76
2023/07/12 04:38:19;;;;;;;13.00;7.40;;;;;;;-146.25;100.00;52047.84;2087448;28;35709;-75
2023/07/12 04:39:21;;;;;;;14.43;7.82;;;;;;;-146.25;100.00;52066.09;2088280;28;33516;-75
2023/07/12 04:40:23;;;;;;;12.57;7.25;;;;;;;-146.25;100.00;52019.47;2087979;28;36140;-74
2023/07/12 04:41:25;;;;;;;10.57;7.50;;;;;;;-146.25;100.00;52064.06;2087316;28;36711;-74
2023/07/12 04:42:27;;;;;;;12.40;7.80;;;;;;;-146.25;100.00;52068.13;2087825;28;34320;-74
2023/07/12 04:43:29;;;;;;;11.30;7.30;;;;;;;-146.25;100.00;52092.44;2088472;28;20822;-74
2023/07/12 04:44:30;;;;;;;12.68;8.00;;;;;;;-146.25;100.00;52062.03;2087648;28;37110;-74
2023/07/12 04:45:32;;;;;;;11.20;7.32;;;;;;;-146.25;100.00;52045.81;2087913;28;32899;-75